Time;durP1;ratioP1;P1;durP2;ratioP2;P2;SDS_P1;SDS_P2;PMS_P1;PMS_P2;Temp;Humidity;BMP_temperature;BMP_pressure;BME280_temperature;BME280_humidity;BME280_pressure;Samples;Min_cycle;Max_cycle;Signal;HPM_P1;HPM_P2
2021/05/09 00:02:18;;;;;;;4.50;2.45;;;11.70;90.30;;;;;;3531312;40;20404;-68
2021/05/09 00:04:44;;;;;;;6.30;2.78;;;11.70;88.60;;;;;;3531435;40;20046;-68
2021/05/09 00:07:11;;;;;;;3.58;2.35;;;11.80;89.90;;;;;;3531625;40;20031;-68
2021/05/09 00:09:37;;;;;;;3.33;2.30;;;11.70;90.20;;;;;;3529669;40;20614;-68
2021/05/09 00:12:03;;;;;;;4.85;2.65;;;11.70;89.80;;;;;;3530972;40;20035;-68
2021/05/09 00:14:29;;;;;;;3.95;2.25;;;11.80;89.10;;;;;;3530476;40;20035;-67
2021/05/09 00:16:55;;;;;;;3.38;2.40;;;11.80;88.90;;;;;;3530426;40;20046;-68
2021/05/09 00:19:20;;;;;;;3.42;2.50;;;11.80;88.40;;;;;;3532945;40;20043;-68
2021/05/09 00:21:46;;;;;;;3.55;2.30;;;11.80;88.10;;;;;;3532755;40;20098;-68
2021/05/09 00:24:12;;;;;;;4.30;2.35;;;11.90;90.70;;;;;;3532854;40;20468;-68
2021/05/09 00:26:37;;;;;;;6.38;2.38;;;11.90;88.60;;;;;;3532395;40;20034;-68
2021/05/09 00:29:04;;;;;;;5.88;2.63;;;11.80;89.70;;;;;;3532577;40;20047;-68
2021/05/09 00:31:29;;;;;;;3.38;2.40;;;11.80;90.20;;;;;;3532417;40;20031;-67
2021/05/09 00:33:55;;;;;;;3.08;2.45;;;11.40;89.70;;;;;;3531072;40;20133;-68
2021/05/09 00:36:21;;;;;;;4.90;2.58;;;11.90;90.10;;;;;;3531085;40;20516;-68
2021/05/09 00:38:46;;;;;;;4.00;2.45;;;11.90;88.40;;;;;;3531000;40;20039;-68
2021/05/09 00:41:12;;;;;;;4.20;2.53;;;11.90;89.50;;;;;;3531342;40;20678;-68
2021/05/09 00:43:38;;;;;;;5.30;2.50;;;11.90;90.20;;;;;;3530718;40;20031;-68
2021/05/09 00:46:04;;;;;;;5.55;2.90;;;11.90;90.50;;;;;;3538580;40;20047;-68
2021/05/09 00:48:30;;;;;;;7.25;2.75;;;11.80;90.30;;;;;;3529727;40;20319;-66
2021/05/09 00:50:56;;;;;;;5.10;2.63;;;11.80;90.30;;;;;;3531036;40;20039;-67
2021/05/09 00:53:25;;;;;;;4.95;2.92;;;11.80;90.50;;;;;;3531569;40;20035;-68
2021/05/09 00:55:51;;;;;;;4.28;2.40;;;12.80;91.10;;;;;;3528619;40;20039;-68
2021/05/09 00:58:18;;;;;;;4.35;2.33;;;11.80;91.20;;;;;;3531959;40;20603;-68
2021/05/09 01:00:45;;;;;;;3.08;2.30;;;11.80;91.60;;;;;;3532610;40;20035;-68
2021/05/09 01:03:12;;;;;;;6.65;2.60;;;11.90;92.20;;;;;;3532309;40;20046;-68
2021/05/09 01:05:39;;;;;;;4.57;2.63;;;11.90;91.90;;;;;;3531381;40;20051;-67
2021/05/09 01:08:05;;;;;;;4.07;2.63;;;11.90;91.40;;;;;;3532208;40;20100;-67
2021/05/09 01:10:32;;;;;;;5.30;2.70;;;11.90;91.50;;;;;;3530823;40;20031;-68
2021/05/09 01:12:58;;;;;;;5.95;2.70;;;11.90;92.20;;;;;;3530064;40;20675;-68
2021/05/09 01:15:28;;;;;;;5.22;2.35;;;11.90;92.20;;;;;;3538999;40;20070;-68
2021/05/09 01:17:53;;;;;;;4.57;2.75;;;11.90;92.50;;;;;;3531601;40;20096;-67
2021/05/09 01:20:20;;;;;;;8.10;2.78;;;12.00;92.10;;;;;;3530436;40;20038;-68
2021/05/09 01:22:46;;;;;;;6.35;2.90;;;12.00;92.20;;;;;;3530430;40;20059;-67
2021/05/09 01:25:12;;;;;;;3.50;2.58;;;11.90;92.40;;;;;;3531458;40;20113;-68
2021/05/09 01:27:39;;;;;;;6.43;3.10;;;11.80;92.70;;;;;;3530932;40;20043;-67
2021/05/09 01:30:10;;;;;;;5.72;2.85;;;11.90;92.50;;;;;;3530989;40;20035;-67
2021/05/09 01:32:36;;;;;;;4.32;3.00;;;11.90;93.40;;;;;;3530266;40;20117;-68
2021/05/09 01:35:03;;;;;;;4.55;2.72;;;11.90;93.20;;;;;;3531358;40;20038;-67
2021/05/09 01:37:29;;;;;;;4.47;2.70;;;12.00;94.40;;;;;;3538823;40;20085;-68
2021/05/09 01:39:55;;;;;;;4.30;2.70;;;11.90;93.10;;;;;;3530695;40;20698;-68
2021/05/09 01:42:21;;;;;;;4.15;2.50;;;11.90;93.90;;;;;;3528859;40;20042;-68
2021/05/09 01:44:57;;;;;;;3.42;2.78;;;12.00;93.80;;;;;;3531443;40;20039;-68
2021/05/09 01:47:24;;;;;;;4.28;2.80;;;12.00;93.80;;;;;;3531431;40;20035;-67
2021/05/09 01:49:51;;;;;;;5.78;2.83;;;12.00;93.50;;;;;;3529540;40;20039;-67
2021/05/09 01:52:17;;;;;;;6.47;3.00;;;12.00;94.40;;;;;;3531122;40;20397;-68
2021/05/09 01:54:44;;;;;;;6.10;3.20;;;12.00;93.90;;;;;;3537526;40;20047;-68
2021/05/09 01:57:11;;;;;;;4.80;2.97;;;12.10;94.30;;;;;;3528554;40;20031;-68
2021/05/09 01:59:40;;;;;;;4.70;2.78;;;12.10;94.30;;;;;;3531210;40;20153;-68
2021/05/09 02:02:06;;;;;;;5.65;2.80;;;11.90;94.70;;;;;;3521607;40;20043;-68
2021/05/09 02:04:37;;;;;;;5.88;3.00;;;12.10;94.40;;;;;;3531256;40;20107;-68
2021/05/09 02:07:07;;;;;;;8.05;3.00;;;12.10;94.50;;;;;;3529485;40;20309;-68
2021/05/09 02:09:34;;;;;;;3.30;2.60;;;12.10;94.70;;;;;;3530912;40;20043;-68
2021/05/09 02:12:02;;;;;;;5.97;3.20;;;12.10;94.60;;;;;;3531386;40;20046;-68
2021/05/09 02:14:37;;;;;;;3.58;2.55;;;12.10;95.10;;;;;;3529351;40;20077;-68
2021/05/09 02:17:04;;;;;;;4.65;2.83;;;12.10;95.20;;;;;;3531084;40;20057;-67
2021/05/09 02:19:31;;;;;;;4.85;2.80;;;12.10;95.10;;;;;;3529160;40;20743;-67
2021/05/09 02:21:57;;;;;;;5.53;3.13;;;12.10;95.50;;;;;;3530644;40;20047;-68
2021/05/09 02:24:25;;;;;;;3.92;2.72;;;12.10;97.60;;;;;;3530346;40;20055;-68
2021/05/09 02:26:51;;;;;;;5.15;2.78;;;;;;;;;;3530248;40;20039;-68
2021/05/09 02:29:18;;;;;;;5.13;2.60;;;;;;;;;;3529573;40;20035;-68
2021/05/09 02:31:46;;;;;;;3.58;2.53;;;;;;;;;;3530987;40;20051;-68
2021/05/09 02:34:25;;;;;;;4.28;2.70;;;;;;;;;;3531382;40;20046;-67
2021/05/09 02:36:50;;;;;;;5.15;3.10;;;12.10;95.50;;;;;;3532154;40;20062;-67
2021/05/09 02:39:17;;;;;;;5.95;3.10;;;;;;;;;;3531894;40;20043;-67
2021/05/09 02:41:44;;;;;;;5.20;3.00;;;12.10;95.80;;;;;;3532250;40;20039;-67
2021/05/09 02:44:10;;;;;;;5.10;2.90;;;12.00;96.40;;;;;;3532232;40;20039;-68
2021/05/09 02:46:36;;;;;;;4.82;3.00;;;12.00;96.70;;;;;;3539610;40;20043;-68
2021/05/09 02:49:03;;;;;;;5.68;3.38;;;11.90;96.40;;;;;;3532345;40;20039;-67
2021/05/09 02:51:29;;;;;;;4.70;2.60;;;11.50;99.90;;;;;;3532830;40;20027;-67
2021/05/09 02:53:56;;;;;;;5.60;2.97;;;;;;;;;;3530906;40;20053;-68
2021/05/09 02:56:21;;;;;;;7.75;2.80;;;11.80;99.90;;;;;;3532015;40;20125;-68
2021/05/09 02:58:48;;;;;;;4.90;2.65;;;12.60;99.90;;;;;;3531534;40;20042;-68
2021/05/09 03:01:15;;;;;;;4.53;2.70;;;;;;;;;;3531269;40;20079;-68
2021/05/09 03:03:42;;;;;;;6.40;2.85;;;;;;;;;;3530930;40;20034;-68
2021/05/09 03:06:08;;;;;;;4.90;2.85;;;;;;;;;;3531141;40;20034;-68
2021/05/09 03:08:37;;;;;;;7.30;3.17;;;11.70;97.20;;;;;;3530978;40;20035;-68
2021/05/09 03:11:03;;;;;;;5.53;2.83;;;11.60;98.00;;;;;;3532431;40;20046;-67
2021/05/09 03:13:30;;;;;;;4.30;2.70;;;;;;;;;;3532132;40;20039;-68
2021/05/09 03:15:57;;;;;;;5.00;2.70;;;11.40;98.20;;;;;;3531672;40;20055;-68
2021/05/09 03:18:23;;;;;;;3.80;2.70;;;11.40;98.60;;;;;;3538855;40;20913;-68
2021/05/09 03:20:49;;;;;;;6.32;3.00;;;11.40;98.90;;;;;;3531989;40;20046;-68
2021/05/09 03:23:15;;;;;;;6.82;2.72;;;11.30;99.00;;;;;;3532010;40;20039;-68
2021/05/09 03:25:40;;;;;;;5.45;2.75;;;11.30;99.20;;;;;;3530686;40;20050;-67
2021/05/09 03:28:06;;;;;;;5.90;2.67;;;11.30;99.40;;;;;;3530930;40;20465;-67
2021/05/09 03:30:32;;;;;;;4.45;2.75;;;11.20;99.90;;;;;;3531809;40;20053;-66
2021/05/09 03:32:58;;;;;;;5.18;2.50;;;11.20;99.60;;;;;;3532095;40;20039;-67
2021/05/09 03:35:24;;;;;;;5.50;2.80;;;11.20;99.30;;;;;;3531480;40;20039;-68
2021/05/09 03:37:49;;;;;;;3.97;2.75;;;11.20;99.50;;;;;;3531314;40;20745;-68
2021/05/09 03:40:16;;;;;;;5.05;2.72;;;11.20;99.70;;;;;;3530118;40;20035;-68
2021/05/09 03:42:42;;;;;;;4.30;2.78;;;11.20;99.80;;;;;;3531546;40;20039;-68
2021/05/09 03:45:08;;;;;;;4.40;2.63;;;11.20;99.80;;;;;;3531133;40;20551;-70
2021/05/09 03:47:36;;;;;;;5.03;2.97;;;11.20;99.90;;;;;;3531953;40;20038;-68
2021/05/09 03:50:02;;;;;;;3.58;2.55;;;11.30;99.70;;;;;;3531610;40;20059;-68
2021/05/09 03:52:28;;;;;;;2.85;2.33;;;11.30;99.80;;;;;;3531818;40;20102;-67
2021/05/09 03:54:54;;;;;;;11.05;3.55;;;11.10;99.90;;;;;;3531712;40;20031;-67
2021/05/09 03:57:19;;;;;;;4.63;2.83;;;11.10;99.90;;;;;;3532169;40;20054;-68
2021/05/09 03:59:45;;;;;;;3.90;2.80;;;10.90;99.90;;;;;;3531500;40;20041;-65
2021/05/09 04:02:11;;;;;;;8.32;5.53;;;10.90;99.90;;;;;;3531794;40;20607;-68
2021/05/09 04:04:37;;;;;;;6.15;3.13;;;10.80;99.90;;;;;;3531732;40;20051;-67
2021/05/09 04:07:03;;;;;;;7.38;2.78;;;10.80;99.90;;;;;;3531803;40;20034;-67
2021/05/09 04:09:28;;;;;;;5.68;2.78;;;10.70;99.90;;;;;;3531189;40;20038;-67
2021/05/09 04:11:54;;;;;;;5.00;3.33;;;10.70;99.90;;;;;;3531297;40;20313;-67
2021/05/09 04:14:20;;;;;;;4.25;2.65;;;10.70;99.90;;;;;;3530957;40;20382;-67
2021/05/09 04:16:45;;;;;;;5.45;2.78;;;10.80;99.90;;;;;;3531809;40;20043;-67
2021/05/09 04:19:11;;;;;;;4.88;2.70;;;10.70;99.90;;;;;;3530682;40;20401;-67
2021/05/09 04:21:37;;;;;;;5.78;3.00;;;10.80;99.90;;;;;;3531469;40;20495;-67
2021/05/09 04:24:03;;;;;;;7.82;3.28;;;10.80;99.90;;;;;;3531604;40;20499;-67
2021/05/09 04:26:29;;;;;;;6.25;3.03;;;10.80;99.90;;;;;;3531142;40;20150;-67
2021/05/09 04:28:54;;;;;;;4.10;2.58;;;10.90;99.90;;;;;;3531952;40;20046;-67
2021/05/09 04:31:20;;;;;;;5.25;2.53;;;;;;;;;;3531872;40;20042;-66
2021/05/09 04:33:46;;;;;;;3.40;2.55;;;11.10;99.90;;;;;;3532525;40;20071;-65
2021/05/09 04:36:12;;;;;;;3.95;2.70;;;11.20;99.90;;;;;;3532073;40;20043;-66
2021/05/09 04:38:37;;;;;;;6.03;2.65;;;11.60;99.90;;;;;;3532020;40;20042;-67
2021/05/09 04:41:03;;;;;;;3.95;2.60;;;;;;;;;;3530953;40;20035;-66
2021/05/09 04:43:29;;;;;;;3.60;2.50;;;11.80;99.50;;;;;;3531052;40;20027;-66
2021/05/09 04:45:56;;;;;;;3.67;2.30;;;12.10;99.70;;;;;;3532526;40;20541;-66
2021/05/09 04:48:22;;;;;;;4.57;2.38;;;12.40;98.60;;;;;;3532798;40;20043;-66
2021/05/09 04:50:48;;;;;;;4.72;2.55;;;12.60;98.50;;;;;;3531318;40;20055;-67
2021/05/09 04:53:36;;;;;;;4.28;2.25;;;12.80;98.10;;;;;;3532740;40;20035;-66
2021/05/09 04:56:06;;;;;;;4.68;2.47;;;13.00;97.80;;;;;;3530046;40;20059;-67
2021/05/09 04:58:34;;;;;;;8.32;2.40;;;12.90;97.80;;;;;;3532089;40;20484;-69
2021/05/09 05:01:01;;;;;;;5.57;2.17;;;12.90;97.90;;;;;;3530564;40;20030;-68
2021/05/09 05:03:28;;;;;;;3.33;2.33;;;12.90;98.40;;;;;;3530407;40;20366;-67
2021/05/09 05:05:54;;;;;;;5.30;2.50;;;12.90;98.10;;;;;;3530827;40;20055;-68
2021/05/09 05:08:20;;;;;;;4.35;2.38;;;13.00;97.70;;;;;;3531090;40;20050;-67
2021/05/09 05:10:46;;;;;;;3.17;2.38;;;13.20;97.50;;;;;;3530880;40;20491;-68
2021/05/09 05:13:22;;;;;;;7.45;3.03;;;13.20;97.90;;;;;;3530718;40;20038;-68
2021/05/09 05:15:53;;;;;;;6.57;3.60;;;13.20;98.00;;;;;;3531363;40;20039;-67
2021/05/09 05:18:19;;;;;;;4.93;2.30;;;13.10;97.70;;;;;;3531595;40;20053;-66
2021/05/09 05:20:45;;;;;;;6.70;3.08;;;13.20;97.60;;;;;;3531040;40;20041;-67
2021/05/09 05:23:12;;;;;;;4.95;3.28;;;13.20;97.60;;;;;;3531813;40;20035;-67
2021/05/09 05:25:39;;;;;;;4.95;2.53;;;13.10;97.50;;;;;;3532267;40;20035;-67
2021/05/09 05:28:05;;;;;;;6.40;2.60;;;13.00;98.20;;;;;;3532583;40;20042;-67
2021/05/09 05:30:31;;;;;;;4.55;2.30;;;12.90;98.10;;;;;;3532712;40;20400;-67
2021/05/09 05:32:59;;;;;;;3.88;2.40;;;12.80;98.20;;;;;;3531805;40;20054;-67
2021/05/09 05:35:26;;;;;;;7.30;2.67;;;12.80;98.50;;;;;;3532554;40;20043;-67
2021/05/09 05:37:53;;;;;;;9.13;2.58;;;12.70;98.70;;;;;;3531232;40;20054;-67
2021/05/09 05:40:18;;;;;;;6.10;2.60;;;12.70;98.70;;;;;;3531576;40;20066;-67
2021/05/09 05:42:44;;;;;;;5.07;2.33;;;12.80;98.40;;;;;;3532197;40;20391;-67
2021/05/09 05:45:10;;;;;;;5.40;2.30;;;13.00;98.40;;;;;;3531512;40;20055;-67
2021/05/09 05:47:36;;;;;;;4.57;2.40;;;13.20;98.30;;;;;;3531695;40;20050;-67
2021/05/09 05:50:04;;;;;;;4.85;2.65;;;13.40;98.00;;;;;;3531815;40;20806;-68
2021/05/09 05:52:30;;;;;;;5.70;2.28;;;13.70;97.40;;;;;;3529886;40;20055;-67
2021/05/09 05:54:56;;;;;;;3.90;2.50;;;;;;;;;;3531872;40;20109;-68
2021/05/09 05:57:21;;;;;;;5.85;2.42;;;14.00;96.50;;;;;;3531909;40;20051;-67
2021/05/09 05:59:47;;;;;;;5.78;3.05;;;14.10;96.40;;;;;;3532151;40;20034;-67
2021/05/09 06:02:13;;;;;;;5.38;2.95;;;14.20;95.80;;;;;;3531813;40;20043;-67
2021/05/09 06:04:40;;;;;;;6.53;2.55;;;14.20;96.20;;;;;;3531528;40;20046;-66
2021/05/09 06:07:07;;;;;;;3.42;2.10;;;14.30;97.20;;;;;;3538873;40;20033;-67
2021/05/09 06:09:32;;;;;;;4.70;2.20;;;14.30;96.60;;;;;;3533160;40;20124;-67
2021/05/09 06:11:58;;;;;;;3.88;2.25;;;14.40;95.90;;;;;;3533125;40;20772;-67
2021/05/09 06:14:24;;;;;;;4.35;2.40;;;;;;;;;;3532986;40;20049;-67
2021/05/09 06:16:50;;;;;;;4.00;2.40;;;14.50;95.90;;;;;;3533465;40;20039;-67
2021/05/09 06:19:16;;;;;;;6.65;2.60;;;14.80;95.80;;;;;;3533194;40;20037;-67
2021/05/09 06:21:42;;;;;;;3.53;2.25;;;14.90;95.60;;;;;;3533069;40;20027;-67
2021/05/09 06:24:08;;;;;;;2.42;1.88;;;14.90;95.70;;;;;;3533253;40;20039;-68
2021/05/09 06:26:34;;;;;;;3.22;2.15;;;14.90;95.90;;;;;;3532946;40;20050;-68
2021/05/09 06:29:00;;;;;;;6.72;2.30;;;15.00;95.60;;;;;;3533377;40;20091;-68
2021/05/09 06:31:25;;;;;;;6.93;2.50;;;15.00;95.20;;;;;;3531802;40;20047;-68
2021/05/09 06:33:51;;;;;;;4.72;2.22;;;15.30;94.90;;;;;;3532474;40;20520;-68
2021/05/09 06:36:17;;;;;;;2.80;2.10;;;15.30;94.90;;;;;;3532965;40;20082;-69
2021/05/09 06:38:43;;;;;;;4.95;1.95;;;;;;;;;;3532624;40;20106;-67
2021/05/09 06:41:09;;;;;;;4.10;2.00;;;15.50;94.50;;;;;;3532827;40;20038;-67
2021/05/09 06:43:35;;;;;;;4.15;1.88;;;15.60;94.90;;;;;;3532544;40;20042;-67
2021/05/09 06:46:01;;;;;;;3.72;1.80;;;15.40;94.80;;;;;;3532181;40;20100;-67
2021/05/09 06:48:27;;;;;;;6.75;2.20;;;;;;;;;;3532301;40;20049;-67
2021/05/09 06:50:54;;;;;;;6.68;2.00;;;;;;;;;;3531849;40;20071;-66
2021/05/09 06:53:20;;;;;;;4.47;2.17;;;;;;;;;;3532563;40;20042;-65
2021/05/09 06:55:50;;;;;;;3.45;2.05;;;15.70;94.70;;;;;;3532642;40;20034;-67
2021/05/09 06:58:26;;;;;;;2.22;1.63;;;15.30;96.30;;;;;;3533075;40;20046;-66
2021/05/09 07:00:52;;;;;;;2.00;1.45;;;16.00;94.40;;;;;;3540920;40;20035;-66
2021/05/09 07:03:18;;;;;;;4.40;1.85;;;15.50;94.70;;;;;;3533135;40;20039;-67
2021/05/09 07:05:44;;;;;;;4.63;1.80;;;16.90;96.30;;;;;;3533063;40;20325;-66
2021/05/09 07:08:10;;;;;;;2.95;1.90;;;16.80;99.90;;;;;;3531742;40;20057;-66
2021/05/09 07:10:36;;;;;;;4.82;1.70;;;;;;;;;;3532152;40;20045;-66
2021/05/09 07:13:03;;;;;;;3.60;1.48;;;17.20;91.90;;;;;;3531784;40;20511;-67
2021/05/09 07:15:38;;;;;;;11.30;2.03;;;;;;;;;;3538683;40;20039;-66
2021/05/09 07:20:41;;;;;;;2.70;1.90;;;;;;;;;;3531055;40;20039;-66
2021/05/09 07:23:07;;;;;;;4.95;1.92;;;;;;;;;;3530686;40;20039;-67
2021/05/09 07:25:34;;;;;;;2.25;1.65;;;;;;;;;;3531965;40;20211;-67
2021/05/09 07:28:07;;;;;;;4.97;2.28;;;;;;;;;;3531730;40;20129;-67
2021/05/09 07:30:34;;;;;;;4.38;2.17;;;17.70;90.20;;;;;;3531776;40;20457;-67
2021/05/09 07:33:00;;;;;;;2.10;1.60;;;;;;;;;;3532015;40;20423;-67
2021/05/09 07:35:26;;;;;;;3.05;1.58;;;;;;;;;;3531896;40;20570;-66
2021/05/09 07:37:52;;;;;;;2.45;1.70;;;;;;;;;;3530652;40;20039;-67
2021/05/09 07:40:22;;;;;;;2.95;1.70;;;17.30;91.10;;;;;;3531471;40;21003;-66
2021/05/09 07:42:48;;;;;;;4.80;1.90;;;17.80;93.80;;;;;;3531086;40;20051;-66
2021/05/09 07:45:24;;;;;;;2.25;1.50;;;;;;;;;;3531716;40;20049;-67
2021/05/09 07:47:51;;;;;;;8.68;2.95;;;;;;;;;;3531817;40;20384;-66
2021/05/09 07:50:18;;;;;;;3.80;1.80;;;;;;;;;;3532014;40;20027;-67
2021/05/09 07:52:45;;;;;;;2.83;1.52;;;;;;;;;;3532071;40;20562;-67
2021/05/09 07:55:11;;;;;;;6.10;1.45;;;;;;;;;;3531029;40;20324;-66
2021/05/09 07:57:37;;;;;;;3.85;1.70;;;;;;;;;;3531947;40;20074;-66
2021/05/09 08:00:07;;;;;;;3.55;1.48;;;18.70;84.50;;;;;;3532383;40;20039;-68
2021/05/09 08:02:41;;;;;;;3.05;1.58;;;18.70;85.60;;;;;;3530975;40;20049;-69
2021/05/09 08:05:08;;;;;;;2.85;1.75;;;;;;;;;;3532341;40;20064;-69
2021/05/09 08:07:34;;;;;;;6.05;1.48;;;;;;;;;;3532127;40;20042;-68
2021/05/09 08:10:00;;;;;;;2.47;1.50;;;18.10;83.80;;;;;;3531865;40;20491;-68
2021/05/09 08:12:25;;;;;;;3.90;1.63;;;19.60;84.70;;;;;;3532522;40;20233;-69
2021/05/09 08:14:51;;;;;;;3.25;1.75;;;19.30;82.00;;;;;;3531619;40;20401;-67
2021/05/09 08:17:17;;;;;;;2.67;1.60;;;19.30;82.60;;;;;;3531935;40;20046;-68
2021/05/09 08:19:42;;;;;;;3.35;1.60;;;19.20;84.60;;;;;;3530767;40;20062;-67
2021/05/09 08:22:08;;;;;;;6.05;2.42;;;19.60;83.90;;;;;;3531180;40;20519;-67
2021/05/09 08:24:35;;;;;;;2.30;2.05;;;;;;;;;;3531812;40;20039;-67
2021/05/09 08:27:00;;;;;;;5.18;2.65;;;20.70;91.80;;;;;;3530980;40;20043;-66
2021/05/09 08:29:26;;;;;;;3.72;2.55;;;20.30;80.00;;;;;;3531809;40;20553;-69
2021/05/09 08:31:52;;;;;;;5.90;3.38;;;20.30;79.30;;;;;;3532015;40;20039;-67
2021/05/09 08:34:18;;;;;;;5.28;1.35;;;20.30;77.40;;;;;;3532076;40;20038;-67
2021/05/09 08:36:44;;;;;;;2.85;1.92;;;20.10;73.80;;;;;;3532018;40;20328;-67
2021/05/09 08:39:10;;;;;;;2.22;1.42;;;;;;;;;;3531901;40;20063;-68
2021/05/09 08:41:40;;;;;;;6.13;2.53;;;21.30;75.80;;;;;;3532141;40;20126;-68
2021/05/09 08:44:10;;;;;;;3.00;1.20;;;21.30;72.70;;;;;;3530429;40;20522;-71
2021/05/09 08:46:37;;;;;;;2.08;1.30;;;21.50;70.40;;;;;;3530981;40;20505;-67
2021/05/09 08:49:07;;;;;;;3.80;1.50;;;21.30;68.90;;;;;;3530709;40;20078;-67
2021/05/09 08:51:33;;;;;;;5.20;2.20;;;;;;;;;;3530670;40;20382;-67
2021/05/09 08:53:59;;;;;;;4.63;1.38;;;22.10;67.50;;;;;;3530362;40;20038;-68
2021/05/09 08:56:26;;;;;;;1.63;1.20;;;22.20;67.70;;;;;;3531137;40;20031;-67
2021/05/09 08:58:52;;;;;;;6.22;2.92;;;22.30;69.10;;;;;;3531543;40;20038;-67
2021/05/09 09:01:19;;;;;;;9.90;2.13;;;;;;;;;;3531308;40;20031;-68
2021/05/09 09:03:45;;;;;;;3.33;1.73;;;;;;;;;;3531693;40;20180;-69
2021/05/09 09:06:17;;;;;;;3.42;2.33;;;;;;;;;;3531487;40;20047;-68
2021/05/09 09:08:52;;;;;;;3.70;1.90;;;22.80;66.90;;;;;;3531831;40;20776;-68
2021/05/09 09:11:28;;;;;;;3.00;1.30;;;23.10;64.10;;;;;;3531658;40;20046;-69
2021/05/09 09:14:13;;;;;;;5.95;1.50;;;22.40;66.40;;;;;;3531646;40;20192;-68
2021/05/09 09:16:39;;;;;;;2.22;1.40;;;22.80;68.70;;;;;;3531303;40;20122;-70
2021/05/09 09:19:13;;;;;;;4.60;1.90;;;23.30;64.30;;;;;;3531040;40;20046;-69
2021/05/09 09:21:39;;;;;;;4.00;1.70;;;23.20;64.40;;;;;;3529981;40;20042;-69
2021/05/09 09:24:11;;;;;;;2.13;1.00;;;23.20;64.50;;;;;;3531114;40;20393;-68
2021/05/09 09:26:46;;;;;;;1.27;0.82;;;23.20;64.40;;;;;;3531303;40;20047;-68
2021/05/09 09:29:38;;;;;;;1.73;1.00;;;23.20;63.50;;;;;;3530652;40;20408;-68
2021/05/09 09:32:09;;;;;;;3.40;1.15;;;23.00;63.00;;;;;;3528745;40;20042;-68
2021/05/09 09:34:43;;;;;;;1.98;1.08;;;23.20;63.60;;;;;;3530936;40;20327;-69
2021/05/09 09:37:10;;;;;;;4.07;3.00;;;23.70;62.40;;;;;;3529990;40;20064;-69
2021/05/09 09:39:57;;;;;;;2.55;0.93;;;23.90;62.40;;;;;;3531766;40;20047;-67
2021/05/09 09:42:45;;;;;;;8.63;1.50;;;23.90;61.60;;;;;;3529524;40;20076;-69
2021/05/09 09:45:18;;;;;;;1.67;0.70;;;23.90;64.50;;;;;;3532744;40;20566;-68
2021/05/09 09:47:47;;;;;;;2.63;0.90;;;24.00;60.80;;;;;;3532198;40;20054;-67
2021/05/09 09:50:35;;;;;;;3.85;1.05;;;24.00;59.60;;;;;;3533077;40;20042;-65
2021/05/09 09:53:02;;;;;;;6.22;1.42;;;24.70;60.80;;;;;;3532890;40;20039;-65
2021/05/09 09:55:28;;;;;;;2.80;1.00;;;;;;;;;;3533223;40;20415;-66
2021/05/09 09:58:04;;;;;;;1.10;0.90;;;24.70;59.40;;;;;;3532140;40;20058;-64
2021/05/09 10:00:29;;;;;;;1.98;1.08;;;24.60;57.90;;;;;;3533472;40;20483;-66
2021/05/09 10:02:56;;;;;;;3.10;1.23;;;24.70;58.70;;;;;;3533521;40;20047;-66
2021/05/09 10:05:22;;;;;;;4.80;1.10;;;24.60;59.30;;;;;;3533210;40;20038;-66
2021/05/09 10:07:49;;;;;;;1.67;1.15;;;24.50;57.60;;;;;;3533992;40;20401;-65
2021/05/09 10:10:15;;;;;;;2.47;0.93;;;24.40;57.80;;;;;;3532265;40;20060;-67
2021/05/09 10:12:41;;;;;;;1.42;0.90;;;24.40;57.70;;;;;;3532944;40;20779;-67
2021/05/09 10:15:07;;;;;;;2.70;1.05;;;24.90;57.60;;;;;;3533493;40;20039;-66
2021/05/09 10:17:36;;;;;;;3.42;1.60;;;25.00;57.00;;;;;;3533400;40;20054;-65
2021/05/09 10:20:04;;;;;;;2.53;0.80;;;;;;;;;;3533347;40;20062;-65
2021/05/09 10:22:31;;;;;;;4.85;0.90;;;;;;;;;;3533359;40;20039;-65
2021/05/09 10:24:57;;;;;;;2.85;0.88;;;25.00;57.20;;;;;;3533208;40;20502;-67
2021/05/09 10:27:41;;;;;;;2.67;0.75;;;25.00;57.70;;;;;;3533141;40;20190;-68
2021/05/09 10:30:17;;;;;;;2.75;0.93;;;24.90;57.00;;;;;;3533045;40;20484;-69
2021/05/09 10:32:47;;;;;;;2.30;1.13;;;24.90;56.80;;;;;;3533071;40;20145;-66
2021/05/09 10:35:13;;;;;;;2.42;0.90;;;;;;;;;;3532812;40;20046;-67
2021/05/09 10:37:42;;;;;;;1.63;0.80;;;;;;;;;;3532630;40;20043;-68
2021/05/09 10:40:21;;;;;;;2.92;1.30;;;25.30;55.40;;;;;;3529318;40;20102;-66
2021/05/09 10:42:48;;;;;;;2.85;1.35;;;25.50;55.10;;;;;;3531199;40;20050;-67
2021/05/09 10:45:33;;;;;;;4.00;1.05;;;25.00;53.90;;;;;;3533358;40;20042;-65
2021/05/09 10:48:21;;;;;;;2.83;0.73;;;;;;;;;;3532407;40;20039;-67
2021/05/09 10:50:48;;;;;;;7.13;1.00;;;24.90;56.80;;;;;;3532587;40;20035;-66
2021/05/09 10:55:59;;;;;;;2.88;0.93;;;;;;;;;;3531684;40;20311;-67
2021/05/09 10:58:50;;;;;;;1.40;0.70;;;25.60;52.60;;;;;;3532511;40;20112;-67
2021/05/09 11:01:25;;;;;;;2.42;0.90;;;;;;;;;;3532810;40;20055;-66
2021/05/09 11:03:58;;;;;;;3.10;1.02;;;;;;;;;;3532750;40;20046;-67
2021/05/09 11:06:26;;;;;;;1.13;0.90;;;25.60;51.40;;;;;;3532259;40;20035;-66
2021/05/09 11:09:05;;;;;;;2.95;1.00;;;25.60;51.10;;;;;;3530286;40;20030;-68
2021/05/09 11:11:31;;;;;;;4.25;1.10;;;;;;;;;;3532473;40;20598;-67
2021/05/09 11:13:58;;;;;;;1.13;0.82;;;25.90;51.00;;;;;;3531411;40;20121;-68
2021/05/09 11:16:28;;;;;;;2.65;0.90;;;;;;;;;;3529619;40;20414;-68
2021/05/09 11:19:01;;;;;;;4.43;0.95;;;;;;;;;;3532348;40;20039;-68
2021/05/09 11:21:30;;;;;;;1.20;0.88;;;;;;;;;;3532030;40;21116;-65
2021/05/09 11:23:56;;;;;;;4.85;1.00;;;26.90;50.10;;;;;;3532627;40;20058;-64
2021/05/09 11:26:25;;;;;;;1.70;0.90;;;26.90;49.60;;;;;;3532283;40;20054;-65
2021/05/09 11:29:10;;;;;;;3.03;0.88;;;;;;;;;;3531179;40;20047;-65
2021/05/09 11:31:38;;;;;;;;;;;27.40;47.60;;;;;;3531747;40;20057;-63
2021/05/09 11:34:04;;;;;;;2.03;0.90;;;27.70;58.40;;;;;;3531299;40;19941;-64
2021/05/09 11:36:32;;;;;;;1.45;1.00;;;26.60;48.20;;;;;;3530677;40;20455;-64
2021/05/09 11:39:11;;;;;;;2.70;0.80;;;26.70;47.90;;;;;;3531781;40;20034;-63
2021/05/09 11:41:59;;;;;;;2.00;0.75;;;27.30;45.30;;;;;;3531093;40;20043;-63
2021/05/09 11:44:30;;;;;;;4.38;0.80;;;27.60;45.20;;;;;;3529765;40;20062;-62
2021/05/09 11:46:57;;;;;;;0.82;0.65;;;27.30;44.90;;;;;;3530707;40;20077;-62
2021/05/09 11:49:27;;;;;;;2.60;0.90;;;27.50;46.90;;;;;;3530923;40;20067;-62
2021/05/09 11:52:10;;;;;;;3.50;0.90;;;28.30;46.50;;;;;;3530712;40;20137;-62
2021/05/09 11:54:43;;;;;;;1.13;0.60;;;;;;;;;;3531207;40;20038;-62
2021/05/09 11:57:10;;;;;;;4.05;1.10;;;;;;;;;;3531549;40;20039;-62
2021/05/09 11:59:44;;;;;;;1.00;0.90;;;28.60;42.30;;;;;;3531678;40;20029;-62
2021/05/09 12:02:12;;;;;;;2.80;0.80;;;28.70;43.50;;;;;;3530393;40;20412;-62
2021/05/09 12:04:41;;;;;;;4.78;0.90;;;28.50;44.10;;;;;;3532283;40;20038;-62
2021/05/09 12:07:09;;;;;;;1.95;0.90;;;28.70;44.90;;;;;;3531668;40;20057;-62
2021/05/09 12:09:35;;;;;;;2.60;1.02;;;28.90;43.20;;;;;;3531925;40;20035;-62
2021/05/09 12:12:02;;;;;;;2.25;0.82;;;28.80;44.20;;;;;;3531691;40;20027;-62
2021/05/09 12:14:29;;;;;;;5.47;0.82;;;28.80;43.60;;;;;;3532568;40;20034;-63
2021/05/09 12:16:55;;;;;;;1.10;0.70;;;29.00;43.20;;;;;;3532381;40;20103;-63
2021/05/09 12:19:34;;;;;;;5.03;1.35;;;29.80;44.40;;;;;;3531613;40;20047;-63
2021/05/09 12:22:04;;;;;;;3.80;0.90;;;30.10;41.90;;;;;;3531663;40;20061;-63
2021/05/09 12:24:45;;;;;;;0.82;0.68;;;30.40;43.20;;;;;;3525662;40;20050;-63
2021/05/09 12:27:12;;;;;;;0.95;0.70;;;30.10;41.00;;;;;;3538472;40;20046;-62
2021/05/09 12:29:48;;;;;;;1.70;0.90;;;29.40;42.50;;;;;;3531006;40;20104;-66
2021/05/09 12:32:23;;;;;;;3.10;0.70;;;29.00;42.10;;;;;;3530875;40;20405;-65
2021/05/09 12:35:08;;;;;;;1.40;0.67;;;28.80;41.70;;;;;;3530517;40;20046;-65
2021/05/09 12:37:55;;;;;;;1.60;0.77;;;29.10;40.90;;;;;;3531386;40;20599;-66
2021/05/09 12:40:37;;;;;;;1.15;0.70;;;29.70;42.70;;;;;;3529854;40;20034;-65
2021/05/09 12:43:08;;;;;;;0.90;0.70;;;30.20;41.10;;;;;;3529906;40;20045;-65
2021/05/09 12:45:47;;;;;;;2.90;0.80;;;30.20;39.40;;;;;;3531297;40;20035;-63
2021/05/09 12:48:17;;;;;;;1.58;0.88;;;30.30;39.50;;;;;;3530789;40;20064;-63
2021/05/09 12:50:48;;;;;;;3.65;0.70;;;30.80;39.00;;;;;;3529927;40;20644;-63
2021/05/09 12:53:40;;;;;;;3.50;1.63;;;30.60;38.30;;;;;;3529579;40;20031;-63
2021/05/09 12:56:31;;;;;;;2.42;0.73;;;31.40;38.50;;;;;;3529066;40;20064;-63
2021/05/09 12:59:00;;;;;;;1.35;0.60;;;30.40;39.10;;;;;;3531497;40;20027;-63
2021/05/09 13:01:26;;;;;;;2.42;0.80;;;30.80;38.90;;;;;;3530158;40;20070;-63
2021/05/09 13:03:52;;;;;;;5.57;0.80;;;31.00;40.00;;;;;;3531165;40;20050;-63
2021/05/09 13:06:17;;;;;;;1.70;0.77;;;32.20;37.90;;;;;;3531195;40;20031;-63
2021/05/09 13:08:43;;;;;;;4.20;0.93;;;31.90;37.30;;;;;;3530468;40;20095;-64
2021/05/09 13:11:09;;;;;;;0.88;0.65;;;32.10;38.10;;;;;;3531053;40;20433;-62
2021/05/09 13:13:35;;;;;;;1.85;0.80;;;31.60;38.60;;;;;;3531075;40;20034;-63
2021/05/09 13:16:00;;;;;;;1.60;0.80;;;31.30;37.40;;;;;;3530626;40;20050;-70
2021/05/09 13:18:26;;;;;;;1.30;0.60;;;31.70;38.50;;;;;;3530974;40;20758;-70